sensor_id;sensor_type;location;lat;lon;timestamp;temperature;humidity
28677;DHT22;15858;48.338;11.078;2022-11-18T00:00:54;8.30;99.90
28677;DHT22;15858;48.338;11.078;2022-11-18T00:03:21;8.30;99.90
28677;DHT22;15858;48.338;11.078;2022-11-18T00:05:52;8.30;99.90
28677;DHT22;15858;48.338;11.078;2022-11-18T00:08:20;8.30;99.90
28677;DHT22;15858;48.338;11.078;2022-11-18T00:10:47;8.30;99.90
28677;DHT22;15858;48.338;11.078;2022-11-18T00:13:14;8.30;99.90
28677;DHT22;15858;48.338;11.078;2022-11-18T00:15:40;8.30;99.90
28677;DHT22;15858;48.338;11.078;2022-11-18T00:18:07;8.30;99.90
28677;DHT22;15858;48.338;11.078;2022-11-18T00:20:34;8.30;99.90
28677;DHT22;15858;48.338;11.078;2022-11-18T00:23:01;8.30;99.90
28677;DHT22;15858;48.338;11.078;2022-11-18T00:25:27;8.30;99.90
28677;DHT22;15858;48.338;11.078;2022-11-18T00:27:54;8.30;99.90
28677;DHT22;15858;48.338;11.078;2022-11-18T00:30:20;8.30;99.90
28677;DHT22;15858;48.338;11.078;2022-11-18T00:32:47;8.30;99.90
28677;DHT22;15858;48.338;11.078;2022-11-18T00:35:13;8.30;99.90
28677;DHT22;15858;48.338;11.078;2022-11-18T00:37:40;8.30;99.90
28677;DHT22;15858;48.338;11.078;2022-11-18T00:40:07;8.30;99.90
28677;DHT22;15858;48.338;11.078;2022-11-18T00:42:34;8.30;99.90
28677;DHT22;15858;48.338;11.078;2022-11-18T00:45:00;8.30;99.90
28677;DHT22;15858;48.338;11.078;2022-11-18T00:47:27;8.30;99.90
28677;DHT22;15858;48.338;11.078;2022-11-18T00:49:53;8.30;99.90
28677;DHT22;15858;48.338;11.078;2022-11-18T00:52:20;8.30;99.90
28677;DHT22;15858;48.338;11.078;2022-11-18T00:54:47;8.30;99.90
28677;DHT22;15858;48.338;11.078;2022-11-18T00:57:13;8.30;99.90
28677;DHT22;15858;48.338;11.078;2022-11-18T00:59:40;8.30;99.90
28677;DHT22;15858;48.338;11.078;2022-11-18T01:02:06;8.30;99.90
28677;DHT22;15858;48.338;11.078;2022-11-18T01:04:33;8.30;99.90
28677;DHT22;15858;48.338;11.078;2022-11-18T01:06:59;8.30;99.90
28677;DHT22;15858;48.338;11.078;2022-11-18T01:09:26;8.30;99.90
28677;DHT22;15858;48.338;11.078;2022-11-18T01:11:53;8.30;99.90
28677;DHT22;15858;48.338;11.078;2022-11-18T01:14:19;8.20;99.90
28677;DHT22;15858;48.338;11.078;2022-11-18T01:16:46;8.30;99.90
28677;DHT22;15858;48.338;11.078;2022-11-18T01:19:14;8.20;99.90
28677;DHT22;15858;48.338;11.078;2022-11-18T01:21:41;8.20;99.90
28677;DHT22;15858;48.338;11.078;2022-11-18T01:24:08;8.20;99.90
28677;DHT22;15858;48.338;11.078;2022-11-18T01:26:34;8.20;99.90
28677;DHT22;15858;48.338;11.078;2022-11-18T01:29:01;8.20;99.90
28677;DHT22;15858;48.338;11.078;2022-11-18T01:31:27;8.20;99.90
28677;DHT22;15858;48.338;11.078;2022-11-18T01:33:55;8.20;99.90
28677;DHT22;15858;48.338;11.078;2022-11-18T01:36:23;8.20;99.90
28677;DHT22;15858;48.338;11.078;2022-11-18T01:38:51;8.20;99.90
28677;DHT22;15858;48.338;11.078;2022-11-18T01:41:19;8.20;99.90
28677;DHT22;15858;48.338;11.078;2022-11-18T01:44:00;8.20;99.90
28677;DHT22;15858;48.338;11.078;2022-11-18T01:46:29;8.10;99.90
28677;DHT22;15858;48.338;11.078;2022-11-18T01:51:32;8.10;99.90
28677;DHT22;15858;48.338;11.078;2022-11-18T01:54:08;8.10;99.90
28677;DHT22;15858;48.338;11.078;2022-11-18T01:56:41;8.10;99.90
28677;DHT22;15858;48.338;11.078;2022-11-18T01:59:12;8.00;99.90
28677;DHT22;15858;48.338;11.078;2022-11-18T02:01:40;8.00;99.90
28677;DHT22;15858;48.338;11.078;2022-11-18T02:04:08;8.00;99.90
28677;DHT22;15858;48.338;11.078;2022-11-18T02:06:35;8.00;99.90
28677;DHT22;15858;48.338;11.078;2022-11-18T02:09:03;8.00;99.90
28677;DHT22;15858;48.338;11.078;2022-11-18T02:11:30;8.00;99.90
28677;DHT22;15858;48.338;11.078;2022-11-18T02:13:58;8.00;99.90
28677;DHT22;15858;48.338;11.078;2022-11-18T02:19:18;7.90;99.90
28677;DHT22;15858;48.338;11.078;2022-11-18T02:22:06;7.90;99.90
28677;DHT22;15858;48.338;11.078;2022-11-18T02:25:08;7.90;99.90
28677;DHT22;15858;48.338;11.078;2022-11-18T02:30:23;7.90;99.90
28677;DHT22;15858;48.338;11.078;2022-11-18T02:32:56;7.90;99.90
28677;DHT22;15858;48.338;11.078;2022-11-18T02:36:12;7.90;99.90
28677;DHT22;15858;48.338;11.078;2022-11-18T02:38:42;7.90;99.90
28677;DHT22;15858;48.338;11.078;2022-11-18T02:41:16;7.90;99.90
28677;DHT22;15858;48.338;11.078;2022-11-18T02:43:52;7.80;99.90
28677;DHT22;15858;48.338;11.078;2022-11-18T02:46:31;7.90;99.90
28677;DHT22;15858;48.338;11.078;2022-11-18T02:49:00;7.90;99.90
28677;DHT22;15858;48.338;11.078;2022-11-18T02:51:30;7.90;99.90
28677;DHT22;15858;48.338;11.078;2022-11-18T02:54:02;7.90;99.90
28677;DHT22;15858;48.338;11.078;2022-11-18T02:56:32;7.90;99.90
28677;DHT22;15858;48.338;11.078;2022-11-18T02:58:59;7.90;99.90
28677;DHT22;15858;48.338;11.078;2022-11-18T03:01:29;7.90;99.90
28677;DHT22;15858;48.338;11.078;2022-11-18T03:03:56;7.90;99.90
28677;DHT22;15858;48.338;11.078;2022-11-18T03:06:37;7.90;99.90
28677;DHT22;15858;48.338;11.078;2022-11-18T03:09:14;7.90;99.90
28677;DHT22;15858;48.338;11.078;2022-11-18T03:14:40;7.90;99.90
28677;DHT22;15858;48.338;11.078;2022-11-18T03:17:15;7.90;99.90
28677;DHT22;15858;48.338;11.078;2022-11-18T03:23:13;7.90;99.90
28677;DHT22;15858;48.338;11.078;2022-11-18T03:25:48;7.80;99.90
28677;DHT22;15858;48.338;11.078;2022-11-18T03:33:40;7.80;99.90
28677;DHT22;15858;48.338;11.078;2022-11-18T03:36:09;7.80;99.90
28677;DHT22;15858;48.338;11.078;2022-11-18T03:38:41;7.80;99.90
28677;DHT22;15858;48.338;11.078;2022-11-18T03:41:11;7.90;99.90
28677;DHT22;15858;48.338;11.078;2022-11-18T03:43:43;7.80;99.90
28677;DHT22;15858;48.338;11.078;2022-11-18T03:46:16;7.80;99.90
28677;DHT22;15858;48.338;11.078;2022-11-18T03:48:52;7.80;99.90
28677;DHT22;15858;48.338;11.078;2022-11-18T03:51:27;7.80;99.90
28677;DHT22;15858;48.338;11.078;2022-11-18T03:54:04;7.80;99.90
28677;DHT22;15858;48.338;11.078;2022-11-18T03:56:37;7.80;99.90
28677;DHT22;15858;48.338;11.078;2022-11-18T03:59:13;7.80;99.90
28677;DHT22;15858;48.338;11.078;2022-11-18T04:04:19;7.80;99.90
28677;DHT22;15858;48.338;11.078;2022-11-18T04:07:10;7.80;99.90
28677;DHT22;15858;48.338;11.078;2022-11-18T04:09:47;7.80;99.90
28677;DHT22;15858;48.338;11.078;2022-11-18T04:12:17;7.80;99.90
28677;DHT22;15858;48.338;11.078;2022-11-18T04:14:46;7.80;99.90
28677;DHT22;15858;48.338;11.078;2022-11-18T04:17:16;7.80;99.90
28677;DHT22;15858;48.338;11.078;2022-11-18T04:19:43;7.80;99.90
28677;DHT22;15858;48.338;11.078;2022-11-18T04:22:10;7.80;99.90
28677;DHT22;15858;48.338;11.078;2022-11-18T04:24:37;7.80;99.90
28677;DHT22;15858;48.338;11.078;2022-11-18T04:27:04;7.80;99.90
28677;DHT22;15858;48.338;11.078;2022-11-18T04:29:32;7.80;99.90
28677;DHT22;15858;48.338;11.078;2022-11-18T04:32:00;7.80;99.90
28677;DHT22;15858;48.338;11.078;2022-11-18T04:34:27;7.80;99.90
28677;DHT22;15858;48.338;11.078;2022-11-18T04:36:53;7.80;99.90
28677;DHT22;15858;48.338;11.078;2022-11-18T04:39:20;7.80;99.90
28677;DHT22;15858;48.338;11.078;2022-11-18T04:41:47;7.80;99.90
28677;DHT22;15858;48.338;11.078;2022-11-18T04:44:13;7.80;99.90
28677;DHT22;15858;48.338;11.078;2022-11-18T04:46:44;7.90;99.90
28677;DHT22;15858;48.338;11.078;2022-11-18T04:49:12;7.90;99.90
28677;DHT22;15858;48.338;11.078;2022-11-18T04:51:43;7.90;99.90
28677;DHT22;15858;48.338;11.078;2022-11-18T04:54:10;7.80;99.90
28677;DHT22;15858;48.338;11.078;2022-11-18T04:56:37;7.90;99.90
28677;DHT22;15858;48.338;11.078;2022-11-18T04:59:11;7.90;99.90
28677;DHT22;15858;48.338;11.078;2022-11-18T05:01:38;7.90;99.90
28677;DHT22;15858;48.338;11.078;2022-11-18T05:04:05;7.90;99.90
28677;DHT22;15858;48.338;11.078;2022-11-18T05:06:33;7.90;99.90
28677;DHT22;15858;48.338;11.078;2022-11-18T05:09:00;7.90;99.90
28677;DHT22;15858;48.338;11.078;2022-11-18T05:11:27;7.90;99.90
28677;DHT22;15858;48.338;11.078;2022-11-18T05:13:54;7.80;99.90
28677;DHT22;15858;48.338;11.078;2022-11-18T05:16:20;7.90;99.90
28677;DHT22;15858;48.338;11.078;2022-11-18T05:18:47;7.80;99.90
28677;DHT22;15858;48.338;11.078;2022-11-18T05:21:14;7.90;99.90
28677;DHT22;15858;48.338;11.078;2022-11-18T05:23:40;7.80;99.90
28677;DHT22;15858;48.338;11.078;2022-11-18T05:26:09;7.80;99.90
28677;DHT22;15858;48.338;11.078;2022-11-18T05:28:37;7.90;99.90
28677;DHT22;15858;48.338;11.078;2022-11-18T05:31:12;7.90;99.90
28677;DHT22;15858;48.338;11.078;2022-11-18T05:33:40;7.90;99.90
28677;DHT22;15858;48.338;11.078;2022-11-18T05:36:12;7.90;99.90
28677;DHT22;15858;48.338;11.078;2022-11-18T05:38:40;7.90;99.90
28677;DHT22;15858;48.338;11.078;2022-11-18T05:41:07;7.90;99.90
28677;DHT22;15858;48.338;11.078;2022-11-18T05:43:35;7.90;99.90
28677;DHT22;15858;48.338;11.078;2022-11-18T05:46:02;7.90;99.90
28677;DHT22;15858;48.338;11.078;2022-11-18T05:48:29;8.00;99.90
28677;DHT22;15858;48.338;11.078;2022-11-18T05:50:55;8.00;99.90
28677;DHT22;15858;48.338;11.078;2022-11-18T05:53:23;7.90;99.90
28677;DHT22;15858;48.338;11.078;2022-11-18T05:56:03;8.00;99.90
28677;DHT22;15858;48.338;11.078;2022-11-18T05:58:32;7.90;99.90
28677;DHT22;15858;48.338;11.078;2022-11-18T06:01:02;7.90;99.90
28677;DHT22;15858;48.338;11.078;2022-11-18T06:03:31;7.90;99.90
28677;DHT22;15858;48.338;11.078;2022-11-18T06:06:02;7.90;99.90
28677;DHT22;15858;48.338;11.078;2022-11-18T06:08:35;7.90;99.90
28677;DHT22;15858;48.338;11.078;2022-11-18T06:11:03;7.90;99.90
28677;DHT22;15858;48.338;11.078;2022-11-18T06:13:35;7.90;99.90
28677;DHT22;15858;48.338;11.078;2022-11-18T06:16:03;7.90;99.90
28677;DHT22;15858;48.338;11.078;2022-11-18T06:18:30;7.90;99.90
28677;DHT22;15858;48.338;11.078;2022-11-18T06:21:00;7.90;99.90
28677;DHT22;15858;48.338;11.078;2022-11-18T06:23:28;7.90;99.90
28677;DHT22;15858;48.338;11.078;2022-11-18T06:25:56;7.90;99.90
28677;DHT22;15858;48.338;11.078;2022-11-18T06:28:23;7.90;99.90
28677;DHT22;15858;48.338;11.078;2022-11-18T06:30:50;7.90;99.90
28677;DHT22;15858;48.338;11.078;2022-11-18T06:33:16;7.90;99.90
28677;DHT22;15858;48.338;11.078;2022-11-18T06:35:43;7.90;99.90
28677;DHT22;15858;48.338;11.078;2022-11-18T06:38:10;7.90;99.90
28677;DHT22;15858;48.338;11.078;2022-11-18T06:40:37;7.80;99.90
28677;DHT22;15858;48.338;11.078;2022-11-18T06:43:07;7.80;99.90
28677;DHT22;15858;48.338;11.078;2022-11-18T06:45:34;7.80;99.90
28677;DHT22;15858;48.338;11.078;2022-11-18T06:48:01;7.80;99.90
28677;DHT22;15858;48.338;11.078;2022-11-18T06:50:27;7.80;99.90
28677;DHT22;15858;48.338;11.078;2022-11-18T06:52:54;7.80;99.90
28677;DHT22;15858;48.338;11.078;2022-11-18T06:55:21;7.80;99.90
28677;DHT22;15858;48.338;11.078;2022-11-18T06:57:47;7.80;99.90
28677;DHT22;15858;48.338;11.078;2022-11-18T07:00:14;7.80;99.90
28677;DHT22;15858;48.338;11.078;2022-11-18T07:02:41;7.80;99.90
28677;DHT22;15858;48.338;11.078;2022-11-18T07:05:08;7.70;99.90
28677;DHT22;15858;48.338;11.078;2022-11-18T07:07:35;7.80;99.90
28677;DHT22;15858;48.338;11.078;2022-11-18T07:10:08;7.70;99.90
28677;DHT22;15858;48.338;11.078;2022-11-18T07:12:34;7.70;99.90
28677;DHT22;15858;48.338;11.078;2022-11-18T07:15:01;7.70;99.90
28677;DHT22;15858;48.338;11.078;2022-11-18T07:17:29;7.60;99.90
28677;DHT22;15858;48.338;11.078;2022-11-18T07:19:56;7.60;99.90
28677;DHT22;15858;48.338;11.078;2022-11-18T07:22:23;7.60;99.90
28677;DHT22;15858;48.338;11.078;2022-11-18T07:24:49;7.60;99.90
28677;DHT22;15858;48.338;11.078;2022-11-18T07:27:16;7.60;99.90
28677;DHT22;15858;48.338;11.078;2022-11-18T07:29:43;7.60;99.90
28677;DHT22;15858;48.338;11.078;2022-11-18T07:32:09;7.60;99.90
28677;DHT22;15858;48.338;11.078;2022-11-18T07:34:36;7.60;99.90
28677;DHT22;15858;48.338;11.078;2022-11-18T07:37:02;7.60;99.90
28677;DHT22;15858;48.338;11.078;2022-11-18T07:39:29;7.50;99.90
28677;DHT22;15858;48.338;11.078;2022-11-18T07:41:55;7.40;99.90
28677;DHT22;15858;48.338;11.078;2022-11-18T07:44:22;7.40;99.90
28677;DHT22;15858;48.338;11.078;2022-11-18T07:46:49;7.40;99.90
28677;DHT22;15858;48.338;11.078;2022-11-18T07:49:15;7.40;99.90
28677;DHT22;15858;48.338;11.078;2022-11-18T07:51:42;7.40;99.90
28677;DHT22;15858;48.338;11.078;2022-11-18T07:54:11;7.40;99.90
28677;DHT22;15858;48.338;11.078;2022-11-18T07:56:38;7.50;99.90
28677;DHT22;15858;48.338;11.078;2022-11-18T07:59:07;7.50;99.90
28677;DHT22;15858;48.338;11.078;2022-11-18T08:01:33;7.40;99.90
28677;DHT22;15858;48.338;11.078;2022-11-18T08:04:05;7.30;99.90
28677;DHT22;15858;48.338;11.078;2022-11-18T08:06:33;7.30;99.90
28677;DHT22;15858;48.338;11.078;2022-11-18T08:09:00;7.30;99.90
28677;DHT22;15858;48.338;11.078;2022-11-18T08:11:27;7.40;99.90
28677;DHT22;15858;48.338;11.078;2022-11-18T08:13:54;7.40;99.90
28677;DHT22;15858;48.338;11.078;2022-11-18T08:16:23;7.30;99.90
28677;DHT22;15858;48.338;11.078;2022-11-18T08:18:50;7.40;99.90
28677;DHT22;15858;48.338;11.078;2022-11-18T08:21:19;7.40;99.90
28677;DHT22;15858;48.338;11.078;2022-11-18T08:23:56;7.50;99.90
28677;DHT22;15858;48.338;11.078;2022-11-18T08:26:24;7.40;99.90
28677;DHT22;15858;48.338;11.078;2022-11-18T08:28:51;7.40;99.90
28677;DHT22;15858;48.338;11.078;2022-11-18T08:31:20;7.40;99.90
28677;DHT22;15858;48.338;11.078;2022-11-18T08:33:47;7.40;99.90
28677;DHT22;15858;48.338;11.078;2022-11-18T08:36:16;7.30;99.90
28677;DHT22;15858;48.338;11.078;2022-11-18T08:38:43;7.40;99.90
28677;DHT22;15858;48.338;11.078;2022-11-18T08:41:16;7.40;99.90
28677;DHT22;15858;48.338;11.078;2022-11-18T08:43:43;7.50;99.90
28677;DHT22;15858;48.338;11.078;2022-11-18T08:46:09;7.40;99.90
28677;DHT22;15858;48.338;11.078;2022-11-18T08:48:36;7.50;99.90
28677;DHT22;15858;48.338;11.078;2022-11-18T08:51:03;7.50;99.90
28677;DHT22;15858;48.338;11.078;2022-11-18T08:53:30;7.50;99.90
28677;DHT22;15858;48.338;11.078;2022-11-18T08:55:57;7.50;99.90
28677;DHT22;15858;48.338;11.078;2022-11-18T08:58:25;7.60;99.90
28677;DHT22;15858;48.338;11.078;2022-11-18T09:00:52;7.70;99.90
28677;DHT22;15858;48.338;11.078;2022-11-18T09:03:19;7.70;99.90
28677;DHT22;15858;48.338;11.078;2022-11-18T09:05:46;7.70;99.90
28677;DHT22;15858;48.338;11.078;2022-11-18T09:08:13;7.70;99.90
28677;DHT22;15858;48.338;11.078;2022-11-18T09:10:39;7.70;99.90
28677;DHT22;15858;48.338;11.078;2022-11-18T09:13:06;7.70;99.90
28677;DHT22;15858;48.338;11.078;2022-11-18T09:15:52;7.70;99.90
28677;DHT22;15858;48.338;11.078;2022-11-18T09:18:19;7.70;99.90
28677;DHT22;15858;48.338;11.078;2022-11-18T09:20:56;7.60;99.90
28677;DHT22;15858;48.338;11.078;2022-11-18T09:23:23;7.60;99.90
28677;DHT22;15858;48.338;11.078;2022-11-18T09:26:06;7.60;99.90
28677;DHT22;15858;48.338;11.078;2022-11-18T09:28:34;7.60;99.90
28677;DHT22;15858;48.338;11.078;2022-11-18T09:31:05;7.60;99.90
28677;DHT22;15858;48.338;11.078;2022-11-18T09:33:33;7.70;99.90
28677;DHT22;15858;48.338;11.078;2022-11-18T09:36:00;7.60;99.90
28677;DHT22;15858;48.338;11.078;2022-11-18T09:38:30;7.70;99.90
28677;DHT22;15858;48.338;11.078;2022-11-18T09:49:27;7.80;99.90
28677;DHT22;15858;48.338;11.078;2022-11-18T09:51:55;7.70;99.90
28677;DHT22;15858;48.338;11.078;2022-11-18T09:54:24;7.70;99.90
28677;DHT22;15858;48.338;11.078;2022-11-18T09:56:53;7.70;99.90
28677;DHT22;15858;48.338;11.078;2022-11-18T09:59:23;7.70;99.90
28677;DHT22;15858;48.338;11.078;2022-11-18T10:01:53;7.70;99.90
28677;DHT22;15858;48.338;11.078;2022-11-18T10:04:21;7.80;99.90
28677;DHT22;15858;48.338;11.078;2022-11-18T10:06:48;7.90;99.90
28677;DHT22;15858;48.338;11.078;2022-11-18T10:11:58;7.80;99.90
28677;DHT22;15858;48.338;11.078;2022-11-18T10:23:19;7.80;99.90
28677;DHT22;15858;48.338;11.078;2022-11-18T10:25:47;7.80;99.90
28677;DHT22;15858;48.338;11.078;2022-11-18T10:28:22;7.80;99.90
28677;DHT22;15858;48.338;11.078;2022-11-18T10:30:50;7.90;99.90
28677;DHT22;15858;48.338;11.078;2022-11-18T10:33:25;8.00;99.90
28677;DHT22;15858;48.338;11.078;2022-11-18T10:36:17;8.00;99.90
28677;DHT22;15858;48.338;11.078;2022-11-18T10:38:44;7.90;99.90
28677;DHT22;15858;48.338;11.078;2022-11-18T10:41:17;7.80;99.90
28677;DHT22;15858;48.338;11.078;2022-11-18T10:43:54;7.90;99.90
28677;DHT22;15858;48.338;11.078;2022-11-18T10:46:35;8.00;99.90
28677;DHT22;15858;48.338;11.078;2022-11-18T10:51:43;8.00;99.90
28677;DHT22;15858;48.338;11.078;2022-11-18T10:54:18;8.00;99.90
28677;DHT22;15858;48.338;11.078;2022-11-18T10:59:25;7.90;99.90
28677;DHT22;15858;48.338;11.078;2022-11-18T11:04:50;7.90;99.90
28677;DHT22;15858;48.338;11.078;2022-11-18T11:07:31;7.80;99.90
28677;DHT22;15858;48.338;11.078;2022-11-18T11:10:16;7.80;99.90
28677;DHT22;15858;48.338;11.078;2022-11-18T11:13:08;7.80;99.90
28677;DHT22;15858;48.338;11.078;2022-11-18T11:15:40;7.80;99.90
28677;DHT22;15858;48.338;11.078;2022-11-18T11:18:30;7.80;99.90
28677;DHT22;15858;48.338;11.078;2022-11-18T11:20:59;7.80;99.90
28677;DHT22;15858;48.338;11.078;2022-11-18T11:23:25;7.80;99.90
28677;DHT22;15858;48.338;11.078;2022-11-18T11:26:03;7.80;99.90
28677;DHT22;15858;48.338;11.078;2022-11-18T11:35:24;7.80;99.90
28677;DHT22;15858;48.338;11.078;2022-11-18T11:37:58;7.80;99.90
28677;DHT22;15858;48.338;11.078;2022-11-18T11:46:27;7.80;99.90
28677;DHT22;15858;48.338;11.078;2022-11-18T11:51:59;7.80;99.90
28677;DHT22;15858;48.338;11.078;2022-11-18T11:54:48;7.90;99.90
28677;DHT22;15858;48.338;11.078;2022-11-18T11:57:35;8.00;99.90
28677;DHT22;15858;48.338;11.078;2022-11-18T12:00:10;7.80;99.90
28677;DHT22;15858;48.338;11.078;2022-11-18T12:05:28;7.70;99.90
28677;DHT22;15858;48.338;11.078;2022-11-18T12:07:58;7.80;99.90
28677;DHT22;15858;48.338;11.078;2022-11-18T12:10:52;7.70;99.90
28677;DHT22;15858;48.338;11.078;2022-11-18T12:13:35;7.70;99.90
28677;DHT22;15858;48.338;11.078;2022-11-18T12:19:13;7.60;99.90
28677;DHT22;15858;48.338;11.078;2022-11-18T12:26:46;7.60;99.90
28677;DHT22;15858;48.338;11.078;2022-11-18T12:31:55;7.60;99.90
28677;DHT22;15858;48.338;11.078;2022-11-18T12:36:52;7.50;99.90
28677;DHT22;15858;48.338;11.078;2022-11-18T12:42:03;7.60;99.90
28677;DHT22;15858;48.338;11.078;2022-11-18T12:44:30;7.50;99.90
28677;DHT22;15858;48.338;11.078;2022-11-18T12:46:58;7.40;99.90
28677;DHT22;15858;48.338;11.078;2022-11-18T12:51:57;7.40;99.90
28677;DHT22;15858;48.338;11.078;2022-11-18T12:57:26;7.40;99.90
28677;DHT22;15858;48.338;11.078;2022-11-18T12:59:53;7.30;99.90
28677;DHT22;15858;48.338;11.078;2022-11-18T13:02:28;7.40;99.90
28677;DHT22;15858;48.338;11.078;2022-11-18T13:05:18;7.40;99.90
28677;DHT22;15858;48.338;11.078;2022-11-18T13:07:51;7.40;99.90
28677;DHT22;15858;48.338;11.078;2022-11-18T13:10:22;7.40;99.90
28677;DHT22;15858;48.338;11.078;2022-11-18T13:12:50;7.40;99.90
28677;DHT22;15858;48.338;11.078;2022-11-18T13:15:17;7.40;99.90
28677;DHT22;15858;48.338;11.078;2022-11-18T13:17:44;7.50;99.90
28677;DHT22;15858;48.338;11.078;2022-11-18T13:20:26;7.50;99.90
28677;DHT22;15858;48.338;11.078;2022-11-18T13:22:54;7.50;99.90
28677;DHT22;15858;48.338;11.078;2022-11-18T13:25:23;7.40;99.90
28677;DHT22;15858;48.338;11.078;2022-11-18T13:28:25;7.40;99.90
28677;DHT22;15858;48.338;11.078;2022-11-18T13:31:06;7.50;99.90
28677;DHT22;15858;48.338;11.078;2022-11-18T13:33:38;7.50;99.90
28677;DHT22;15858;48.338;11.078;2022-11-18T13:36:19;7.60;99.90
28677;DHT22;15858;48.338;11.078;2022-11-18T13:39:02;7.50;99.90
28677;DHT22;15858;48.338;11.078;2022-11-18T13:41:30;7.60;99.90
28677;DHT22;15858;48.338;11.078;2022-11-18T13:44:23;7.50;99.90
28677;DHT22;15858;48.338;11.078;2022-11-18T13:46:54;7.50;99.90
28677;DHT22;15858;48.338;11.078;2022-11-18T13:49:39;7.60;99.90
28677;DHT22;15858;48.338;11.078;2022-11-18T13:52:15;7.50;99.90
28677;DHT22;15858;48.338;11.078;2022-11-18T13:54:44;7.50;99.90
28677;DHT22;15858;48.338;11.078;2022-11-18T13:57:19;7.50;99.90
28677;DHT22;15858;48.338;11.078;2022-11-18T13:59:48;7.50;99.90
28677;DHT22;15858;48.338;11.078;2022-11-18T14:02:16;7.50;99.90
28677;DHT22;15858;48.338;11.078;2022-11-18T14:04:59;7.50;99.90
28677;DHT22;15858;48.338;11.078;2022-11-18T14:07:32;7.50;99.90
28677;DHT22;15858;48.338;11.078;2022-11-18T14:10:05;7.60;99.90
28677;DHT22;15858;48.338;11.078;2022-11-18T14:12:34;7.60;99.90
28677;DHT22;15858;48.338;11.078;2022-11-18T14:17:54;7.60;99.90
28677;DHT22;15858;48.338;11.078;2022-11-18T14:20:21;7.60;99.90
28677;DHT22;15858;48.338;11.078;2022-11-18T14:22:53;7.60;99.90
28677;DHT22;15858;48.338;11.078;2022-11-18T14:25:33;7.60;99.90
28677;DHT22;15858;48.338;11.078;2022-11-18T14:28:20;7.60;99.90
28677;DHT22;15858;48.338;11.078;2022-11-18T14:34:16;7.60;99.90
28677;DHT22;15858;48.338;11.078;2022-11-18T14:36:44;7.60;99.90
28677;DHT22;15858;48.338;11.078;2022-11-18T14:39:30;7.60;99.90
28677;DHT22;15858;48.338;11.078;2022-11-18T14:41:58;7.60;99.90
28677;DHT22;15858;48.338;11.078;2022-11-18T14:44:26;7.60;99.90
28677;DHT22;15858;48.338;11.078;2022-11-18T14:47:15;7.70;99.90
28677;DHT22;15858;48.338;11.078;2022-11-18T14:49:43;7.70;99.90
28677;DHT22;15858;48.338;11.078;2022-11-18T14:52:10;7.70;99.90
28677;DHT22;15858;48.338;11.078;2022-11-18T14:54:36;7.60;99.90
28677;DHT22;15858;48.338;11.078;2022-11-18T14:57:03;7.60;99.90
28677;DHT22;15858;48.338;11.078;2022-11-18T14:59:31;7.60;99.90
28677;DHT22;15858;48.338;11.078;2022-11-18T15:01:58;7.60;99.90
28677;DHT22;15858;48.338;11.078;2022-11-18T15:04:24;7.50;99.90
28677;DHT22;15858;48.338;11.078;2022-11-18T15:06:51;7.50;99.90
28677;DHT22;15858;48.338;11.078;2022-11-18T15:09:18;7.40;99.90
28677;DHT22;15858;48.338;11.078;2022-11-18T15:11:45;7.50;99.90
28677;DHT22;15858;48.338;11.078;2022-11-18T15:14:12;7.50;99.90
28677;DHT22;15858;48.338;11.078;2022-11-18T15:16:38;7.50;99.90
28677;DHT22;15858;48.338;11.078;2022-11-18T15:19:11;7.50;99.90
28677;DHT22;15858;48.338;11.078;2022-11-18T15:21:38;7.40;99.90
28677;DHT22;15858;48.338;11.078;2022-11-18T15:24:05;7.50;99.90
28677;DHT22;15858;48.338;11.078;2022-11-18T15:26:38;7.40;99.90
28677;DHT22;15858;48.338;11.078;2022-11-18T15:29:18;7.50;99.90
28677;DHT22;15858;48.338;11.078;2022-11-18T15:31:46;7.50;99.90
28677;DHT22;15858;48.338;11.078;2022-11-18T15:34:13;7.50;99.90
28677;DHT22;15858;48.338;11.078;2022-11-18T15:36:40;7.50;99.90
28677;DHT22;15858;48.338;11.078;2022-11-18T15:39:07;7.50;99.90
28677;DHT22;15858;48.338;11.078;2022-11-18T15:41:34;7.40;99.90
28677;DHT22;15858;48.338;11.078;2022-11-18T15:44:02;7.50;99.90
28677;DHT22;15858;48.338;11.078;2022-11-18T15:46:30;7.40;99.90
28677;DHT22;15858;48.338;11.078;2022-11-18T15:48:58;7.50;99.90
28677;DHT22;15858;48.338;11.078;2022-11-18T15:51:26;7.40;99.90
28677;DHT22;15858;48.338;11.078;2022-11-18T15:53:53;7.40;99.90
28677;DHT22;15858;48.338;11.078;2022-11-18T16:01:45;7.40;99.90
28677;DHT22;15858;48.338;11.078;2022-11-18T16:04:14;7.30;99.90
28677;DHT22;15858;48.338;11.078;2022-11-18T16:06:41;7.40;99.90
28677;DHT22;15858;48.338;11.078;2022-11-18T16:09:07;7.40;99.90
28677;DHT22;15858;48.338;11.078;2022-11-18T16:11:34;7.40;99.90
28677;DHT22;15858;48.338;11.078;2022-11-18T16:14:05;7.30;99.90
28677;DHT22;15858;48.338;11.078;2022-11-18T16:16:33;7.40;99.90
28677;DHT22;15858;48.338;11.078;2022-11-18T16:19:02;7.30;99.90
28677;DHT22;15858;48.338;11.078;2022-11-18T16:21:32;7.30;99.90
28677;DHT22;15858;48.338;11.078;2022-11-18T16:24:00;7.30;99.90
28677;DHT22;15858;48.338;11.078;2022-11-18T16:26:28;7.30;99.90
28677;DHT22;15858;48.338;11.078;2022-11-18T16:28:55;7.30;99.90
28677;DHT22;15858;48.338;11.078;2022-11-18T16:31:22;7.30;99.90
28677;DHT22;15858;48.338;11.078;2022-11-18T16:33:49;7.30;99.90
28677;DHT22;15858;48.338;11.078;2022-11-18T16:36:15;7.30;99.90
28677;DHT22;15858;48.338;11.078;2022-11-18T16:38:42;7.20;99.90
28677;DHT22;15858;48.338;11.078;2022-11-18T16:41:08;7.20;99.90
28677;DHT22;15858;48.338;11.078;2022-11-18T16:43:35;7.20;99.90
28677;DHT22;15858;48.338;11.078;2022-11-18T16:46:01;7.30;99.90
28677;DHT22;15858;48.338;11.078;2022-11-18T16:48:33;7.20;99.90
28677;DHT22;15858;48.338;11.078;2022-11-18T16:53:51;7.20;99.90
28677;DHT22;15858;48.338;11.078;2022-11-18T16:56:23;7.10;99.90
28677;DHT22;15858;48.338;11.078;2022-11-18T16:59:01;7.20;99.90
28677;DHT22;15858;48.338;11.078;2022-11-18T17:01:28;7.10;99.90
28677;DHT22;15858;48.338;11.078;2022-11-18T17:03:56;7.10;99.90
28677;DHT22;15858;48.338;11.078;2022-11-18T17:06:23;7.20;99.90
28677;DHT22;15858;48.338;11.078;2022-11-18T17:08:50;7.10;99.90
28677;DHT22;15858;48.338;11.078;2022-11-18T17:11:18;7.10;99.90
28677;DHT22;15858;48.338;11.078;2022-11-18T17:13:45;7.20;99.90
28677;DHT22;15858;48.338;11.078;2022-11-18T17:16:14;7.10;99.90
28677;DHT22;15858;48.338;11.078;2022-11-18T17:18:41;7.10;99.90
28677;DHT22;15858;48.338;11.078;2022-11-18T17:21:13;7.10;99.90
28677;DHT22;15858;48.338;11.078;2022-11-18T17:23:40;7.10;99.90
28677;DHT22;15858;48.338;11.078;2022-11-18T17:26:07;7.10;99.90
28677;DHT22;15858;48.338;11.078;2022-11-18T17:28:35;7.10;99.90
28677;DHT22;15858;48.338;11.078;2022-11-18T17:31:09;7.10;99.90
28677;DHT22;15858;48.338;11.078;2022-11-18T17:33:36;7.10;99.90